sensor_id;sensor_type;location;lat;lon;timestamp;P1;durP1;ratioP1;P2;durP2;ratioP2
75408;SDS011;63979;55.644;37.734;2024-01-11T00:04:42;5.07;;;3.25;;
75408;SDS011;63979;55.644;37.734;2024-01-11T00:09:44;3.30;;;2.40;;
75408;SDS011;63979;55.644;37.734;2024-01-11T00:14:45;5.93;;;3.03;;
75408;SDS011;63979;55.644;37.734;2024-01-11T00:19:45;3.45;;;1.75;;
75408;SDS011;63979;55.644;37.734;2024-01-11T00:24:46;1.45;;;1.35;;
75408;SDS011;63979;55.644;37.734;2024-01-11T00:29:47;2.38;;;1.35;;
75408;SDS011;63979;55.644;37.734;2024-01-11T00:34:48;4.15;;;1.90;;
75408;SDS011;63979;55.644;37.734;2024-01-11T00:39:49;9.45;;;4.72;;
75408;SDS011;63979;55.644;37.734;2024-01-11T00:44:50;2.45;;;1.10;;
75408;SDS011;63979;55.644;37.734;2024-01-11T00:49:51;2.28;;;1.55;;
75408;SDS011;63979;55.644;37.734;2024-01-11T00:54:52;0.50;;;0.50;;
75408;SDS011;63979;55.644;37.734;2024-01-11T00:59:53;5.32;;;3.00;;
75408;SDS011;63979;55.644;37.734;2024-01-11T01:04:54;13.18;;;2.80;;
75408;SDS011;63979;55.644;37.734;2024-01-11T01:09:54;3.33;;;1.73;;
75408;SDS011;63979;55.644;37.734;2024-01-11T01:14:55;2.10;;;1.27;;
75408;SDS011;63979;55.644;37.734;2024-01-11T01:19:56;2.20;;;1.52;;
75408;SDS011;63979;55.644;37.734;2024-01-11T01:24:57;1.88;;;1.08;;
75408;SDS011;63979;55.644;37.734;2024-01-11T01:29:58;1.90;;;1.27;;
75408;SDS011;63979;55.644;37.734;2024-01-11T01:34:59;1.80;;;1.02;;
75408;SDS011;63979;55.644;37.734;2024-01-11T01:40:00;0.88;;;0.88;;
75408;SDS011;63979;55.644;37.734;2024-01-11T01:45:01;3.25;;;1.80;;
75408;SDS011;63979;55.644;37.734;2024-01-11T01:50:04;4.80;;;2.15;;
75408;SDS011;63979;55.644;37.734;2024-01-11T01:55:06;0.75;;;0.57;;
75408;SDS011;63979;55.644;37.734;2024-01-11T02:05:12;3.55;;;2.40;;
75408;SDS011;63979;55.644;37.734;2024-01-11T02:10:14;2.72;;;1.45;;
75408;SDS011;63979;55.644;37.734;2024-01-11T02:15:15;1.55;;;1.30;;
75408;SDS011;63979;55.644;37.734;2024-01-11T02:20:16;3.85;;;1.40;;
75408;SDS011;63979;55.644;37.734;2024-01-11T02:25:17;1.00;;;0.75;;
75408;SDS011;63979;55.644;37.734;2024-01-11T02:30:19;1.33;;;0.90;;
75408;SDS011;63979;55.644;37.734;2024-01-11T02:35:20;2.97;;;1.30;;
75408;SDS011;63979;55.644;37.734;2024-01-11T02:40:21;1.10;;;1.00;;
75408;SDS011;63979;55.644;37.734;2024-01-11T02:45:23;6.90;;;2.22;;
75408;SDS011;63979;55.644;37.734;2024-01-11T02:50:24;0.68;;;0.68;;
75408;SDS011;63979;55.644;37.734;2024-01-11T02:55:24;3.63;;;1.23;;
75408;SDS011;63979;55.644;37.734;2024-01-11T03:00:25;6.72;;;1.20;;
75408;SDS011;63979;55.644;37.734;2024-01-11T03:05:26;1.45;;;0.57;;
75408;SDS011;63979;55.644;37.734;2024-01-11T03:10:27;0.43;;;0.43;;
75408;SDS011;63979;55.644;37.734;2024-01-11T03:15:28;1.92;;;0.95;;
75408;SDS011;63979;55.644;37.734;2024-01-11T03:20:28;5.80;;;1.27;;
75408;SDS011;63979;55.644;37.734;2024-01-11T03:25:29;1.00;;;0.85;;
75408;SDS011;63979;55.644;37.734;2024-01-11T03:30:30;1.90;;;0.43;;
75408;SDS011;63979;55.644;37.734;2024-01-11T03:35:31;0.70;;;0.70;;
75408;SDS011;63979;55.644;37.734;2024-01-11T03:40:31;0.82;;;0.50;;
75408;SDS011;63979;55.644;37.734;2024-01-11T03:45:32;2.13;;;0.75;;
75408;SDS011;63979;55.644;37.734;2024-01-11T03:50:33;0.57;;;0.20;;
75408;SDS011;63979;55.644;37.734;2024-01-11T03:55:34;1.05;;;0.65;;
75408;SDS011;63979;55.644;37.734;2024-01-11T04:00:35;1.13;;;1.00;;
75408;SDS011;63979;55.644;37.734;2024-01-11T04:05:36;0.40;;;0.32;;
75408;SDS011;63979;55.644;37.734;2024-01-11T04:10:37;0.70;;;0.70;;
75408;SDS011;63979;55.644;37.734;2024-01-11T04:15:37;0.50;;;0.50;;
75408;SDS011;63979;55.644;37.734;2024-01-11T04:20:38;0.45;;;0.35;;
75408;SDS011;63979;55.644;37.734;2024-01-11T04:25:39;2.60;;;0.73;;
75408;SDS011;63979;55.644;37.734;2024-01-11T04:30:40;1.17;;;0.30;;
75408;SDS011;63979;55.644;37.734;2024-01-11T04:35:41;1.25;;;0.60;;
75408;SDS011;63979;55.644;37.734;2024-01-11T04:40:41;0.20;;;0.10;;
75408;SDS011;63979;55.644;37.734;2024-01-11T04:45:42;1.17;;;0.75;;
75408;SDS011;63979;55.644;37.734;2024-01-11T04:50:43;1.08;;;0.40;;
75408;SDS011;63979;55.644;37.734;2024-01-11T04:55:44;0.65;;;0.60;;
75408;SDS011;63979;55.644;37.734;2024-01-11T05:00:45;0.20;;;0.20;;
75408;SDS011;63979;55.644;37.734;2024-01-11T05:05:46;0.38;;;0.38;;
75408;SDS011;63979;55.644;37.734;2024-01-11T05:10:47;1.42;;;0.40;;
75408;SDS011;63979;55.644;37.734;2024-01-11T05:15:48;1.35;;;0.52;;
75408;SDS011;63979;55.644;37.734;2024-01-11T05:20:49;2.17;;;0.52;;
75408;SDS011;63979;55.644;37.734;2024-01-11T05:25:49;0.17;;;0.17;;
75408;SDS011;63979;55.644;37.734;2024-01-11T05:30:50;0.60;;;0.38;;
75408;SDS011;63979;55.644;37.734;2024-01-11T05:35:51;0.50;;;0.40;;
75408;SDS011;63979;55.644;37.734;2024-01-11T05:40:54;0.70;;;0.40;;
75408;SDS011;63979;55.644;37.734;2024-01-11T05:45:55;0.75;;;0.32;;
75408;SDS011;63979;55.644;37.734;2024-01-11T05:50:56;0.60;;;0.43;;
75408;SDS011;63979;55.644;37.734;2024-01-11T05:55:57;0.77;;;0.50;;
75408;SDS011;63979;55.644;37.734;2024-01-11T06:00:58;1.13;;;0.50;;
75408;SDS011;63979;55.644;37.734;2024-01-11T06:05:58;0.30;;;0.17;;
75408;SDS011;63979;55.644;37.734;2024-01-11T06:11:00;0.68;;;0.40;;
75408;SDS011;63979;55.644;37.734;2024-01-11T06:16:01;0.10;;;0.10;;
75408;SDS011;63979;55.644;37.734;2024-01-11T06:21:02;0.40;;;0.30;;
75408;SDS011;63979;55.644;37.734;2024-01-11T06:26:03;0.88;;;0.40;;
75408;SDS011;63979;55.644;37.734;2024-01-11T06:31:04;0.65;;;0.32;;
75408;SDS011;63979;55.644;37.734;2024-01-11T06:36:06;0.25;;;0.25;;
75408;SDS011;63979;55.644;37.734;2024-01-11T06:41:10;0.13;;;0.13;;
75408;SDS011;63979;55.644;37.734;2024-01-11T06:46:11;0.77;;;0.20;;
75408;SDS011;63979;55.644;37.734;2024-01-11T06:51:14;0.50;;;0.32;;
75408;SDS011;63979;55.644;37.734;2024-01-11T06:56:16;1.35;;;0.50;;
75408;SDS011;63979;55.644;37.734;2024-01-11T07:01:18;0.30;;;0.28;;
75408;SDS011;63979;55.644;37.734;2024-01-11T07:06:19;0.60;;;0.30;;
75408;SDS011;63979;55.644;37.734;2024-01-11T07:11:20;0.50;;;0.40;;
75408;SDS011;63979;55.644;37.734;2024-01-11T07:16:21;2.47;;;0.60;;
75408;SDS011;63979;55.644;37.734;2024-01-11T07:21:22;0.40;;;0.32;;
75408;SDS011;63979;55.644;37.734;2024-01-11T07:26:29;0.93;;;0.45;;
75408;SDS011;63979;55.644;37.734;2024-01-11T07:31:30;2.72;;;1.08;;
75408;SDS011;63979;55.644;37.734;2024-01-11T07:36:31;3.83;;;0.77;;
75408;SDS011;63979;55.644;37.734;2024-01-11T07:41:32;2.50;;;0.75;;
75408;SDS011;63979;55.644;37.734;2024-01-11T07:46:33;2.15;;;0.73;;
75408;SDS011;63979;55.644;37.734;2024-01-11T07:51:34;2.78;;;0.60;;
75408;SDS011;63979;55.644;37.734;2024-01-11T07:56:39;0.80;;;0.47;;
75408;SDS011;63979;55.644;37.734;2024-01-11T08:01:41;0.43;;;0.20;;
75408;SDS011;63979;55.644;37.734;2024-01-11T08:06:42;0.38;;;0.38;;
75408;SDS011;63979;55.644;37.734;2024-01-11T08:11:43;0.60;;;0.40;;
75408;SDS011;63979;55.644;37.734;2024-01-11T08:16:44;3.75;;;1.02;;
75408;SDS011;63979;55.644;37.734;2024-01-11T08:21:45;0.95;;;0.35;;
75408;SDS011;63979;55.644;37.734;2024-01-11T08:26:46;0.50;;;0.32;;
75408;SDS011;63979;55.644;37.734;2024-01-11T08:31:46;0.80;;;0.55;;
75408;SDS011;63979;55.644;37.734;2024-01-11T08:36:47;0.70;;;0.25;;
75408;SDS011;63979;55.644;37.734;2024-01-11T08:41:48;0.63;;;0.30;;
75408;SDS011;63979;55.644;37.734;2024-01-11T08:46:49;2.50;;;0.60;;
75408;SDS011;63979;55.644;37.734;2024-01-11T08:51:50;3.03;;;0.40;;
75408;SDS011;63979;55.644;37.734;2024-01-11T08:56:51;1.23;;;0.40;;
75408;SDS011;63979;55.644;37.734;2024-01-11T09:01:53;0.28;;;0.28;;
75408;SDS011;63979;55.644;37.734;2024-01-11T09:06:54;1.45;;;0.35;;
75408;SDS011;63979;55.644;37.734;2024-01-11T09:11:56;0.52;;;0.25;;
75408;SDS011;63979;55.644;37.734;2024-01-11T09:16:57;0.35;;;0.30;;
75408;SDS011;63979;55.644;37.734;2024-01-11T09:21:58;0.20;;;0.10;;
75408;SDS011;63979;55.644;37.734;2024-01-11T09:26:59;1.17;;;0.47;;
75408;SDS011;63979;55.644;37.734;2024-01-11T09:31:59;0.80;;;0.45;;
75408;SDS011;63979;55.644;37.734;2024-01-11T09:37:01;1.58;;;0.60;;
75408;SDS011;63979;55.644;37.734;2024-01-11T09:42:08;0.45;;;0.40;;
75408;SDS011;63979;55.644;37.734;2024-01-11T09:47:10;0.82;;;0.50;;
75408;SDS011;63979;55.644;37.734;2024-01-11T09:52:12;0.82;;;0.52;;
75408;SDS011;63979;55.644;37.734;2024-01-11T09:57:15;0.30;;;0.25;;
75408;SDS011;63979;55.644;37.734;2024-01-11T10:02:23;0.40;;;0.30;;
75408;SDS011;63979;55.644;37.734;2024-01-11T10:07:25;1.35;;;0.38;;
75408;SDS011;63979;55.644;37.734;2024-01-11T10:12:29;0.60;;;0.60;;
75408;SDS011;63979;55.644;37.734;2024-01-11T10:17:30;0.68;;;0.65;;
75408;SDS011;63979;55.644;37.734;2024-01-11T10:22:30;1.13;;;0.93;;
75408;SDS011;63979;55.644;37.734;2024-01-11T10:27:31;2.38;;;0.77;;
75408;SDS011;63979;55.644;37.734;2024-01-11T10:32:32;1.13;;;0.60;;
75408;SDS011;63979;55.644;37.734;2024-01-11T10:37:35;1.83;;;0.70;;
75408;SDS011;63979;55.644;37.734;2024-01-11T10:42:43;2.20;;;0.73;;
75408;SDS011;63979;55.644;37.734;2024-01-11T10:48:03;0.30;;;0.30;;
75408;SDS011;63979;55.644;37.734;2024-01-11T10:58:18;0.75;;;0.40;;
75408;SDS011;63979;55.644;37.734;2024-01-11T11:03:21;0.68;;;0.52;;
75408;SDS011;63979;55.644;37.734;2024-01-11T11:08:28;0.82;;;0.50;;
75408;SDS011;63979;55.644;37.734;2024-01-11T11:13:29;1.92;;;0.73;;
75408;SDS011;63979;55.644;37.734;2024-01-11T11:18:30;1.40;;;0.95;;
75408;SDS011;63979;55.644;37.734;2024-01-11T11:23:32;1.00;;;0.90;;
75408;SDS011;63979;55.644;37.734;2024-01-11T11:28:33;0.88;;;0.65;;
75408;SDS011;63979;55.644;37.734;2024-01-11T11:33:37;3.38;;;1.00;;
75408;SDS011;63979;55.644;37.734;2024-01-11T11:38:38;1.95;;;1.08;;
75408;SDS011;63979;55.644;37.734;2024-01-11T11:43:39;0.50;;;0.35;;
75408;SDS011;63979;55.644;37.734;2024-01-11T11:53:41;0.65;;;0.60;;
75408;SDS011;63979;55.644;37.734;2024-01-11T11:58:43;1.05;;;0.60;;
75408;SDS011;63979;55.644;37.734;2024-01-11T12:03:45;2.25;;;0.60;;
75408;SDS011;63979;55.644;37.734;2024-01-11T12:08:51;0.52;;;0.30;;
75408;SDS011;63979;55.644;37.734;2024-01-11T12:13:53;1.30;;;0.52;;
75408;SDS011;63979;55.644;37.734;2024-01-11T12:18:56;2.92;;;1.75;;
75408;SDS011;63979;55.644;37.734;2024-01-11T12:23:57;1.13;;;0.60;;
75408;SDS011;63979;55.644;37.734;2024-01-11T12:28:58;0.32;;;0.32;;
75408;SDS011;63979;55.644;37.734;2024-01-11T12:33:59;0.32;;;0.20;;
75408;SDS011;63979;55.644;37.734;2024-01-11T12:38:59;1.90;;;0.77;;
75408;SDS011;63979;55.644;37.734;2024-01-11T12:44:00;0.35;;;0.35;;
75408;SDS011;63979;55.644;37.734;2024-01-11T12:49:02;1.05;;;0.17;;
75408;SDS011;63979;55.644;37.734;2024-01-11T12:54:03;0.95;;;0.88;;
75408;SDS011;63979;55.644;37.734;2024-01-11T12:59:05;1.63;;;1.45;;
75408;SDS011;63979;55.644;37.734;2024-01-11T13:04:10;2.40;;;0.82;;
75408;SDS011;63979;55.644;37.734;2024-01-11T13:14:11;0.20;;;0.20;;
75408;SDS011;63979;55.644;37.734;2024-01-11T13:19:19;0.35;;;0.35;;
75408;SDS011;63979;55.644;37.734;2024-01-11T13:24:19;0.45;;;0.30;;
75408;SDS011;63979;55.644;37.734;2024-01-11T13:29:20;0.65;;;0.65;;
75408;SDS011;63979;55.644;37.734;2024-01-11T13:34:21;0.93;;;0.85;;
75408;SDS011;63979;55.644;37.734;2024-01-11T13:39:22;0.95;;;0.65;;
75408;SDS011;63979;55.644;37.734;2024-01-11T13:44:24;0.98;;;0.60;;
75408;SDS011;63979;55.644;37.734;2024-01-11T13:49:24;1.80;;;0.98;;
75408;SDS011;63979;55.644;37.734;2024-01-11T13:54:26;0.82;;;0.50;;
75408;SDS011;63979;55.644;37.734;2024-01-11T13:59:26;2.30;;;0.80;;
75408;SDS011;63979;55.644;37.734;2024-01-11T14:04:28;0.88;;;0.70;;
75408;SDS011;63979;55.644;37.734;2024-01-11T14:09:29;0.45;;;0.45;;
75408;SDS011;63979;55.644;37.734;2024-01-11T14:14:30;2.70;;;0.95;;
75408;SDS011;63979;55.644;37.734;2024-01-11T14:19:30;2.42;;;1.00;;
75408;SDS011;63979;55.644;37.734;2024-01-11T14:24:31;1.35;;;0.85;;
75408;SDS011;63979;55.644;37.734;2024-01-11T14:29:32;2.70;;;0.45;;
75408;SDS011;63979;55.644;37.734;2024-01-11T14:34:33;1.52;;;0.75;;
75408;SDS011;63979;55.644;37.734;2024-01-11T14:39:34;6.93;;;1.70;;
75408;SDS011;63979;55.644;37.734;2024-01-11T14:44:35;2.13;;;0.77;;
75408;SDS011;63979;55.644;37.734;2024-01-11T14:49:36;0.50;;;0.50;;
75408;SDS011;63979;55.644;37.734;2024-01-11T14:54:43;0.50;;;0.45;;
75408;SDS011;63979;55.644;37.734;2024-01-11T14:59:45;0.35;;;0.35;;
75408;SDS011;63979;55.644;37.734;2024-01-11T15:04:48;0.52;;;0.47;;
75408;SDS011;63979;55.644;37.734;2024-01-11T15:09:49;0.00;;;0.00;;
75408;SDS011;63979;55.644;37.734;2024-01-11T15:14:50;0.68;;;0.68;;
75408;SDS011;63979;55.644;37.734;2024-01-11T15:19:51;0.25;;;0.25;;
75408;SDS011;63979;55.644;37.734;2024-01-11T15:24:52;0.40;;;0.40;;
75408;SDS011;63979;55.644;37.734;2024-01-11T15:29:55;0.17;;;0.05;;
75408;SDS011;63979;55.644;37.734;2024-01-11T15:34:57;0.30;;;0.20;;
75408;SDS011;63979;55.644;37.734;2024-01-11T15:39:57;2.65;;;0.68;;
75408;SDS011;63979;55.644;37.734;2024-01-11T15:44:58;0.65;;;0.35;;
75408;SDS011;63979;55.644;37.734;2024-01-11T15:49:59;1.55;;;0.55;;
75408;SDS011;63979;55.644;37.734;2024-01-11T15:55:00;0.68;;;0.68;;
75408;SDS011;63979;55.644;37.734;2024-01-11T16:00:03;0.50;;;0.50;;
75408;SDS011;63979;55.644;37.734;2024-01-11T16:05:05;0.30;;;0.30;;
75408;SDS011;63979;55.644;37.734;2024-01-11T16:10:07;3.17;;;1.00;;
75408;SDS011;63979;55.644;37.734;2024-01-11T16:15:08;5.90;;;1.08;;
75408;SDS011;63979;55.644;37.734;2024-01-11T16:20:11;0.40;;;0.32;;
75408;SDS011;63979;55.644;37.734;2024-01-11T16:25:12;0.85;;;0.47;;
75408;SDS011;63979;55.644;37.734;2024-01-11T16:30:13;0.10;;;0.10;;
75408;SDS011;63979;55.644;37.734;2024-01-11T16:35:14;1.45;;;0.35;;
75408;SDS011;63979;55.644;37.734;2024-01-11T16:40:15;1.00;;;0.20;;
75408;SDS011;63979;55.644;37.734;2024-01-11T16:45:16;0.13;;;0.13;;
75408;SDS011;63979;55.644;37.734;2024-01-11T16:50:18;0.80;;;0.40;;
75408;SDS011;63979;55.644;37.734;2024-01-11T16:55:19;2.17;;;0.22;;
75408;SDS011;63979;55.644;37.734;2024-01-11T17:00:20;0.17;;;0.17;;
75408;SDS011;63979;55.644;37.734;2024-01-11T17:05:22;0.40;;;0.40;;
75408;SDS011;63979;55.644;37.734;2024-01-11T17:10:23;2.72;;;0.40;;
75408;SDS011;63979;55.644;37.734;2024-01-11T17:15:24;0.82;;;0.73;;
75408;SDS011;63979;55.644;37.734;2024-01-11T17:20:27;0.10;;;0.10;;
75408;SDS011;63979;55.644;37.734;2024-01-11T17:25:27;0.55;;;0.55;;
75408;SDS011;63979;55.644;37.734;2024-01-11T17:30:28;0.45;;;0.20;;
75408;SDS011;63979;55.644;37.734;2024-01-11T17:35:29;1.35;;;0.60;;
75408;SDS011;63979;55.644;37.734;2024-01-11T17:40:30;0.28;;;0.22;;
75408;SDS011;63979;55.644;37.734;2024-01-11T17:45:31;0.20;;;0.20;;
75408;SDS011;63979;55.644;37.734;2024-01-11T17:50:35;2.25;;;0.35;;
75408;SDS011;63979;55.644;37.734;2024-01-11T17:55:38;0.85;;;0.35;;
75408;SDS011;63979;55.644;37.734;2024-01-11T18:00:39;0.20;;;0.10;;
75408;SDS011;63979;55.644;37.734;2024-01-11T18:05:41;0.80;;;0.30;;
75408;SDS011;63979;55.644;37.734;2024-01-11T18:10:42;1.92;;;0.47;;
75408;SDS011;63979;55.644;37.734;2024-01-11T18:15:42;0.90;;;0.40;;
75408;SDS011;63979;55.644;37.734;2024-01-11T18:20:44;0.70;;;0.40;;
75408;SDS011;63979;55.644;37.734;2024-01-11T18:25:45;0.47;;;0.47;;
75408;SDS011;63979;55.644;37.734;2024-01-11T18:30:46;0.28;;;0.28;;
75408;SDS011;63979;55.644;37.734;2024-01-11T18:35:47;0.28;;;0.28;;
75408;SDS011;63979;55.644;37.734;2024-01-11T18:40:49;0.98;;;0.63;;
75408;SDS011;63979;55.644;37.734;2024-01-11T18:45:50;2.25;;;1.15;;
75408;SDS011;63979;55.644;37.734;2024-01-11T18:50:51;2.15;;;0.75;;
75408;SDS011;63979;55.644;37.734;2024-01-11T18:55:52;0.10;;;0.10;;
75408;SDS011;63979;55.644;37.734;2024-01-11T19:00:57;0.47;;;0.30;;
75408;SDS011;63979;55.644;37.734;2024-01-11T19:05:57;0.00;;;0.00;;
75408;SDS011;63979;55.644;37.734;2024-01-11T19:10:59;0.20;;;0.20;;
75408;SDS011;63979;55.644;37.734;2024-01-11T19:16:00;0.40;;;0.32;;
75408;SDS011;63979;55.644;37.734;2024-01-11T19:21:01;0.35;;;0.35;;
75408;SDS011;63979;55.644;37.734;2024-01-11T19:26:03;0.35;;;0.35;;
75408;SDS011;63979;55.644;37.734;2024-01-11T19:31:04;1.17;;;0.70;;
75408;SDS011;63979;55.644;37.734;2024-01-11T19:36:05;0.35;;;0.20;;
75408;SDS011;63979;55.644;37.734;2024-01-11T19:41:06;0.43;;;0.40;;
75408;SDS011;63979;55.644;37.734;2024-01-11T19:46:07;0.82;;;0.73;;
75408;SDS011;63979;55.644;37.734;2024-01-11T19:51:11;1.10;;;0.50;;
75408;SDS011;63979;55.644;37.734;2024-01-11T19:56:16;0.38;;;0.30;;
75408;SDS011;63979;55.644;37.734;2024-01-11T20:01:18;0.30;;;0.30;;
75408;SDS011;63979;55.644;37.734;2024-01-11T20:06:18;0.40;;;0.40;;
75408;SDS011;63979;55.644;37.734;2024-01-11T20:11:19;0.30;;;0.30;;
75408;SDS011;63979;55.644;37.734;2024-01-11T20:16:20;3.10;;;1.27;;
75408;SDS011;63979;55.644;37.734;2024-01-11T20:21:21;0.73;;;0.45;;
75408;SDS011;63979;55.644;37.734;2024-01-11T20:26:23;0.77;;;0.57;;
75408;SDS011;63979;55.644;37.734;2024-01-11T20:31:24;3.03;;;0.50;;
75408;SDS011;63979;55.644;37.734;2024-01-11T20:36:26;0.73;;;0.40;;
75408;SDS011;63979;55.644;37.734;2024-01-11T20:41:28;0.30;;;0.30;;
75408;SDS011;63979;55.644;37.734;2024-01-11T20:46:29;0.50;;;0.40;;
75408;SDS011;63979;55.644;37.734;2024-01-11T20:51:30;1.00;;;0.40;;
75408;SDS011;63979;55.644;37.734;2024-01-11T20:56:31;0.05;;;0.05;;
75408;SDS011;63979;55.644;37.734;2024-01-11T21:01:32;0.28;;;0.20;;
75408;SDS011;63979;55.644;37.734;2024-01-11T21:06:33;0.65;;;0.35;;
75408;SDS011;63979;55.644;37.734;2024-01-11T21:11:34;3.20;;;1.02;;
75408;SDS011;63979;55.644;37.734;2024-01-11T21:16:35;2.25;;;0.65;;
75408;SDS011;63979;55.644;37.734;2024-01-11T21:21:39;0.30;;;0.30;;
75408;SDS011;63979;55.644;37.734;2024-01-11T21:26:41;0.25;;;0.17;;
75408;SDS011;63979;55.644;37.734;2024-01-11T21:31:42;0.43;;;0.43;;
75408;SDS011;63979;55.644;37.734;2024-01-11T21:36:44;3.15;;;0.80;;
75408;SDS011;63979;55.644;37.734;2024-01-11T21:41:45;0.22;;;0.22;;
75408;SDS011;63979;55.644;37.734;2024-01-11T21:46:46;0.20;;;0.20;;
75408;SDS011;63979;55.644;37.734;2024-01-11T21:51:46;0.32;;;0.30;;
75408;SDS011;63979;55.644;37.734;2024-01-11T21:56:47;0.10;;;0.10;;
75408;SDS011;63979;55.644;37.734;2024-01-11T22:01:48;0.17;;;0.17;;
75408;SDS011;63979;55.644;37.734;2024-01-11T22:06:49;0.57;;;0.30;;
75408;SDS011;63979;55.644;37.734;2024-01-11T22:11:50;0.00;;;0.00;;
75408;SDS011;63979;55.644;37.734;2024-01-11T22:16:51;0.17;;;0.15;;
75408;SDS011;63979;55.644;37.734;2024-01-11T22:21:52;1.48;;;0.25;;
75408;SDS011;63979;55.644;37.734;2024-01-11T22:26:53;0.65;;;0.20;;
75408;SDS011;63979;55.644;37.734;2024-01-11T22:31:53;0.00;;;0.00;;
75408;SDS011;63979;55.644;37.734;2024-01-11T22:36:55;0.32;;;0.10;;
75408;SDS011;63979;55.644;37.734;2024-01-11T22:41:55;0.38;;;0.13;;
75408;SDS011;63979;55.644;37.734;2024-01-11T22:46:56;1.00;;;0.28;;
75408;SDS011;63979;55.644;37.734;2024-01-11T22:51:57;0.10;;;0.10;;
75408;SDS011;63979;55.644;37.734;2024-01-11T22:56:58;0.30;;;0.17;;
75408;SDS011;63979;55.644;37.734;2024-01-11T23:01:59;1.48;;;0.25;;
75408;SDS011;63979;55.644;37.734;2024-01-11T23:07:00;0.35;;;0.35;;
75408;SDS011;63979;55.644;37.734;2024-01-11T23:12:01;0.77;;;0.20;;
75408;SDS011;63979;55.644;37.734;2024-01-11T23:17:02;0.10;;;0.10;;
75408;SDS011;63979;55.644;37.734;2024-01-11T23:22:02;0.10;;;0.03;;
75408;SDS011;63979;55.644;37.734;2024-01-11T23:27:04;0.75;;;0.28;;
75408;SDS011;63979;55.644;37.734;2024-01-11T23:32:06;0.20;;;0.20;;
75408;SDS011;63979;55.644;37.734;2024-01-11T23:37:07;0.05;;;0.05;;
75408;SDS011;63979;55.644;37.734;2024-01-11T23:42:07;0.13;;;0.13;;
75408;SDS011;63979;55.644;37.734;2024-01-11T23:47:08;0.40;;;0.20;;
75408;SDS011;63979;55.644;37.734;2024-01-11T23:52:09;0.00;;;0.00;;
75408;SDS011;63979;55.644;37.734;2024-01-11T23:57:10;0.57;;;0.20;;
